Terminal Aerodrome Forecast
Issued by NWS

Home | Current Version | Previous Version | Text Only | Print | Product List | Glossary On
Versions: 1 2 3 4 5 6 7 8 9 10 11 12 13 14 15 16 17 18 19 20 21 22 23 24 25 26 27 28 29 30
853
FTUS43 KDDC 302320
TAFHYS
TAF
KHYS 302320Z 3100/3124 16016G21KT P6SM BKN250
     FM310200 16010KT P6SM BKN200
     FM310600 16007KT P6SM VCTS OVC090CB
      TEMPO 3109/3113 VRB15G35KT 4SM -TSRA OVC040CB
     FM311300 02010G20KT 4SM -RA OVC020
     FM311500 03010G20KT P6SM -SHRA OVC040
     FM311900 02010KT P6SM VCSH BKN040=

USA.gov is the U.S. government's official web portal to all federal, state and local government web resources and services.